sensor_id;sensor_type;location;lat;lon;timestamp;pressure;altitude;pressure_sealevel;temperature;humidity
10460;BME280;54412;51.206;6.888;2023-11-19T00:00:43;100266.78;;;10.83;100.00
10460;BME280;54412;51.206;6.888;2023-11-19T00:03:08;100261.56;;;10.81;100.00
10460;BME280;54412;51.206;6.888;2023-11-19T00:05:34;100256.81;;;10.88;100.00
10460;BME280;54412;51.206;6.888;2023-11-19T00:08:00;100244.25;;;10.77;100.00
10460;BME280;54412;51.206;6.888;2023-11-19T00:10:27;100240.22;;;10.86;100.00
10460;BME280;54412;51.206;6.888;2023-11-19T00:12:53;100232.50;;;10.83;100.00
10460;BME280;54412;51.206;6.888;2023-11-19T00:15:18;100231.34;;;10.87;100.00
10460;BME280;54412;51.206;6.888;2023-11-19T00:17:46;100240.72;;;10.92;100.00
10460;BME280;54412;51.206;6.888;2023-11-19T00:20:14;100268.13;;;10.74;100.00
10460;BME280;54412;51.206;6.888;2023-11-19T00:22:43;100273.94;;;10.81;100.00
10460;BME280;54412;51.206;6.888;2023-11-19T00:25:10;100280.47;;;10.89;100.00
10460;BME280;54412;51.206;6.888;2023-11-19T00:27:36;100284.06;;;10.88;100.00
10460;BME280;54412;51.206;6.888;2023-11-19T00:30:06;100271.69;;;11.04;100.00
10460;BME280;54412;51.206;6.888;2023-11-19T00:32:32;100267.44;;;11.02;100.00
10460;BME280;54412;51.206;6.888;2023-11-19T00:34:58;100264.69;;;11.19;100.00
10460;BME280;54412;51.206;6.888;2023-11-19T00:37:24;100257.19;;;11.11;100.00
10460;BME280;54412;51.206;6.888;2023-11-19T00:39:49;100257.97;;;11.13;100.00
10460;BME280;54412;51.206;6.888;2023-11-19T00:42:15;100266.84;;;11.26;100.00
10460;BME280;54412;51.206;6.888;2023-11-19T00:44:41;100254.69;;;11.24;100.00
10460;BME280;54412;51.206;6.888;2023-11-19T00:47:07;100251.66;;;11.16;100.00
10460;BME280;54412;51.206;6.888;2023-11-19T00:49:33;100252.41;;;11.18;100.00
10460;BME280;54412;51.206;6.888;2023-11-19T00:51:59;100253.69;;;11.40;100.00
10460;BME280;54412;51.206;6.888;2023-11-19T00:54:25;100249.16;;;11.42;100.00
10460;BME280;54412;51.206;6.888;2023-11-19T00:56:52;100237.16;;;11.37;100.00
10460;BME280;54412;51.206;6.888;2023-11-19T00:59:19;100236.03;;;11.27;100.00
10460;BME280;54412;51.206;6.888;2023-11-19T01:01:45;100239.00;;;11.36;100.00
10460;BME280;54412;51.206;6.888;2023-11-19T01:04:10;100253.31;;;11.32;100.00
10460;BME280;54412;51.206;6.888;2023-11-19T01:06:36;100237.72;;;11.28;100.00
10460;BME280;54412;51.206;6.888;2023-11-19T01:09:02;100231.88;;;11.23;100.00
10460;BME280;54412;51.206;6.888;2023-11-19T01:11:28;100239.25;;;11.32;100.00
10460;BME280;54412;51.206;6.888;2023-11-19T01:13:54;100227.16;;;11.28;100.00
10460;BME280;54412;51.206;6.888;2023-11-19T01:16:20;100234.06;;;11.30;100.00
10460;BME280;54412;51.206;6.888;2023-11-19T01:18:49;100235.69;;;11.47;100.00
10460;BME280;54412;51.206;6.888;2023-11-19T01:21:15;100236.91;;;11.41;100.00
10460;BME280;54412;51.206;6.888;2023-11-19T01:23:42;100220.72;;;11.47;100.00
10460;BME280;54412;51.206;6.888;2023-11-19T01:26:09;100228.81;;;11.44;100.00
10460;BME280;54412;51.206;6.888;2023-11-19T01:28:36;100220.72;;;11.62;100.00
10460;BME280;54412;51.206;6.888;2023-11-19T01:31:02;100233.06;;;11.61;100.00
10460;BME280;54412;51.206;6.888;2023-11-19T01:33:29;100233.03;;;11.77;100.00
10460;BME280;54412;51.206;6.888;2023-11-19T01:35:55;100233.97;;;11.76;100.00
10460;BME280;54412;51.206;6.888;2023-11-19T01:38:24;100235.00;;;11.73;100.00
10460;BME280;54412;51.206;6.888;2023-11-19T01:40:50;100233.03;;;11.77;100.00
10460;BME280;54412;51.206;6.888;2023-11-19T01:43:40;100232.47;;;11.86;100.00
10460;BME280;54412;51.206;6.888;2023-11-19T01:46:08;100229.84;;;12.00;100.00
10460;BME280;54412;51.206;6.888;2023-11-19T01:48:42;100227.38;;;11.97;100.00
10460;BME280;54412;51.206;6.888;2023-11-19T01:51:09;100224.38;;;11.89;100.00
10460;BME280;54412;51.206;6.888;2023-11-19T01:53:37;100227.44;;;12.09;100.00
10460;BME280;54412;51.206;6.888;2023-11-19T01:56:07;100230.75;;;11.99;100.00
10460;BME280;54412;51.206;6.888;2023-11-19T01:58:36;100232.56;;;12.12;100.00
10460;BME280;54412;51.206;6.888;2023-11-19T02:01:02;100224.88;;;12.22;100.00
10460;BME280;54412;51.206;6.888;2023-11-19T02:03:31;100234.63;;;12.07;100.00
10460;BME280;54412;51.206;6.888;2023-11-19T02:06:01;100216.72;;;12.12;100.00
10460;BME280;54412;51.206;6.888;2023-11-19T02:08:29;100219.16;;;12.15;100.00
10460;BME280;54412;51.206;6.888;2023-11-19T02:10:55;100228.09;;;12.27;100.00
10460;BME280;54412;51.206;6.888;2023-11-19T02:13:25;100223.84;;;12.24;100.00
10460;BME280;54412;51.206;6.888;2023-11-19T02:15:51;100211.50;;;12.25;100.00
10460;BME280;54412;51.206;6.888;2023-11-19T02:18:26;100205.28;;;12.12;100.00
10460;BME280;54412;51.206;6.888;2023-11-19T02:21:00;100191.22;;;12.38;100.00
10460;BME280;54412;51.206;6.888;2023-11-19T02:23:30;100190.78;;;12.31;100.00
10460;BME280;54412;51.206;6.888;2023-11-19T02:26:15;100172.81;;;12.36;100.00
10460;BME280;54412;51.206;6.888;2023-11-19T02:28:43;100162.25;;;12.36;100.00
10460;BME280;54412;51.206;6.888;2023-11-19T02:31:10;100158.41;;;12.28;100.00
10460;BME280;54412;51.206;6.888;2023-11-19T02:33:37;100157.44;;;12.29;100.00
10460;BME280;54412;51.206;6.888;2023-11-19T02:36:08;100162.09;;;12.25;100.00
10460;BME280;54412;51.206;6.888;2023-11-19T02:38:34;100162.78;;;12.41;100.00
10460;BME280;54412;51.206;6.888;2023-11-19T02:41:04;100161.56;;;12.47;100.00
10460;BME280;54412;51.206;6.888;2023-11-19T02:43:34;100156.47;;;12.44;100.00
10460;BME280;54412;51.206;6.888;2023-11-19T02:46:03;100162.19;;;12.50;100.00
10460;BME280;54412;51.206;6.888;2023-11-19T02:48:33;100155.63;;;12.43;100.00
10460;BME280;54412;51.206;6.888;2023-11-19T02:51:01;100166.28;;;12.42;100.00
10460;BME280;54412;51.206;6.888;2023-11-19T02:53:29;100164.94;;;12.49;100.00
10460;BME280;54412;51.206;6.888;2023-11-19T02:55:55;100171.94;;;12.50;100.00
10460;BME280;54412;51.206;6.888;2023-11-19T02:58:27;100164.25;;;12.59;100.00
10460;BME280;54412;51.206;6.888;2023-11-19T03:00:55;100170.00;;;12.66;100.00
10460;BME280;54412;51.206;6.888;2023-11-19T03:03:25;100170.66;;;12.70;100.00
10460;BME280;54412;51.206;6.888;2023-11-19T03:05:57;100166.34;;;12.54;100.00
10460;BME280;54412;51.206;6.888;2023-11-19T03:08:23;100161.91;;;12.55;100.00
10460;BME280;54412;51.206;6.888;2023-11-19T03:10:49;100151.44;;;12.53;100.00
10460;BME280;54412;51.206;6.888;2023-11-19T03:13:15;100158.44;;;12.67;100.00
10460;BME280;54412;51.206;6.888;2023-11-19T03:15:41;100151.06;;;12.72;100.00
10460;BME280;54412;51.206;6.888;2023-11-19T03:18:07;100149.59;;;12.68;100.00
10460;BME280;54412;51.206;6.888;2023-11-19T03:20:33;100147.97;;;12.66;100.00
10460;BME280;54412;51.206;6.888;2023-11-19T03:22:59;100138.34;;;12.65;100.00
10460;BME280;54412;51.206;6.888;2023-11-19T03:25:27;100144.56;;;12.63;100.00
10460;BME280;54412;51.206;6.888;2023-11-19T03:28:02;100125.94;;;12.65;100.00
10460;BME280;54412;51.206;6.888;2023-11-19T03:30:30;100137.81;;;12.72;100.00
10460;BME280;54412;51.206;6.888;2023-11-19T03:32:57;100137.06;;;12.70;100.00
10460;BME280;54412;51.206;6.888;2023-11-19T03:35:24;100141.53;;;12.70;100.00
10460;BME280;54412;51.206;6.888;2023-11-19T03:37:50;100143.22;;;12.71;100.00
10460;BME280;54412;51.206;6.888;2023-11-19T03:40:17;100141.53;;;12.70;100.00
10460;BME280;54412;51.206;6.888;2023-11-19T03:42:47;100159.19;;;12.69;100.00
10460;BME280;54412;51.206;6.888;2023-11-19T03:45:13;100156.56;;;12.69;100.00
10460;BME280;54412;51.206;6.888;2023-11-19T03:47:41;100153.66;;;12.59;100.00
10460;BME280;54412;51.206;6.888;2023-11-19T03:50:07;100158.25;;;12.70;100.00
10460;BME280;54412;51.206;6.888;2023-11-19T03:52:34;100155.91;;;12.66;100.00
10460;BME280;54412;51.206;6.888;2023-11-19T03:54:59;100162.03;;;12.53;100.00
10460;BME280;54412;51.206;6.888;2023-11-19T03:57:27;100166.81;;;12.74;100.00
10460;BME280;54412;51.206;6.888;2023-11-19T03:59:53;100167.78;;;12.73;100.00
10460;BME280;54412;51.206;6.888;2023-11-19T04:02:19;100172.22;;;12.72;100.00
10460;BME280;54412;51.206;6.888;2023-11-19T04:04:44;100179.88;;;12.77;100.00
10460;BME280;54412;51.206;6.888;2023-11-19T04:07:10;100178.59;;;12.70;100.00
10460;BME280;54412;51.206;6.888;2023-11-19T04:09:36;100175.47;;;12.63;100.00
10460;BME280;54412;51.206;6.888;2023-11-19T04:12:03;100166.88;;;12.59;100.00
10460;BME280;54412;51.206;6.888;2023-11-19T04:14:29;100166.88;;;12.59;100.00
10460;BME280;54412;51.206;6.888;2023-11-19T04:16:55;100163.84;;;12.66;100.00
10460;BME280;54412;51.206;6.888;2023-11-19T04:19:21;100161.97;;;12.68;100.00
10460;BME280;54412;51.206;6.888;2023-11-19T04:21:47;100161.25;;;12.51;100.00
10460;BME280;54412;51.206;6.888;2023-11-19T04:24:13;100158.34;;;12.69;100.00
10460;BME280;54412;51.206;6.888;2023-11-19T04:26:44;100169.13;;;12.66;100.00
10460;BME280;54412;51.206;6.888;2023-11-19T04:29:14;100168.50;;;12.62;100.00
10460;BME280;54412;51.206;6.888;2023-11-19T04:31:40;100172.50;;;12.55;100.00
10460;BME280;54412;51.206;6.888;2023-11-19T04:34:07;100178.16;;;12.49;100.00
10460;BME280;54412;51.206;6.888;2023-11-19T04:36:33;100184.88;;;12.54;100.00
10460;BME280;54412;51.206;6.888;2023-11-19T04:39:00;100180.81;;;12.49;100.00
10460;BME280;54412;51.206;6.888;2023-11-19T04:41:26;100181.72;;;12.62;100.00
10460;BME280;54412;51.206;6.888;2023-11-19T04:43:55;100184.66;;;12.57;100.00
10460;BME280;54412;51.206;6.888;2023-11-19T04:46:21;100181.28;;;12.55;100.00
10460;BME280;54412;51.206;6.888;2023-11-19T04:48:46;100176.19;;;12.52;100.00
10460;BME280;54412;51.206;6.888;2023-11-19T04:51:12;100182.22;;;12.54;100.00
10460;BME280;54412;51.206;6.888;2023-11-19T04:53:38;100168.06;;;12.55;100.00
10460;BME280;54412;51.206;6.888;2023-11-19T04:56:10;100181.41;;;12.67;100.00
10460;BME280;54412;51.206;6.888;2023-11-19T04:58:37;100177.38;;;12.61;100.00
10460;BME280;54412;51.206;6.888;2023-11-19T05:01:04;100175.13;;;12.55;100.00
10460;BME280;54412;51.206;6.888;2023-11-19T05:03:31;100184.69;;;12.43;100.00
10460;BME280;54412;51.206;6.888;2023-11-19T05:05:57;100182.91;;;12.44;100.00
10460;BME280;54412;51.206;6.888;2023-11-19T05:08:23;100176.38;;;12.49;100.00
10460;BME280;54412;51.206;6.888;2023-11-19T05:10:49;100191.13;;;12.39;100.00
10460;BME280;54412;51.206;6.888;2023-11-19T05:13:14;100188.84;;;12.47;100.00
10460;BME280;54412;51.206;6.888;2023-11-19T05:15:41;100186.41;;;12.44;100.00
10460;BME280;54412;51.206;6.888;2023-11-19T05:18:06;100184.53;;;12.46;100.00
10460;BME280;54412;51.206;6.888;2023-11-19T05:20:32;100200.47;;;12.45;100.00
10460;BME280;54412;51.206;6.888;2023-11-19T05:22:58;100203.75;;;12.48;100.00
10460;BME280;54412;51.206;6.888;2023-11-19T05:25:26;100209.38;;;12.44;100.00
10460;BME280;54412;51.206;6.888;2023-11-19T05:27:53;100192.28;;;12.35;100.00
10460;BME280;54412;51.206;6.888;2023-11-19T05:30:19;100204.19;;;12.42;100.00
10460;BME280;54412;51.206;6.888;2023-11-19T05:32:45;100201.63;;;12.41;100.00
10460;BME280;54412;51.206;6.888;2023-11-19T05:35:11;100212.28;;;12.39;100.00
10460;BME280;54412;51.206;6.888;2023-11-19T05:37:37;100216.28;;;12.32;100.00
10460;BME280;54412;51.206;6.888;2023-11-19T05:40:05;100223.38;;;12.32;100.00
10460;BME280;54412;51.206;6.888;2023-11-19T05:42:37;100213.91;;;12.42;100.00
10460;BME280;54412;51.206;6.888;2023-11-19T05:45:03;100207.84;;;12.40;100.00
10460;BME280;54412;51.206;6.888;2023-11-19T05:47:29;100209.25;;;12.45;100.00
10460;BME280;54412;51.206;6.888;2023-11-19T05:49:55;100209.09;;;12.34;100.00
10460;BME280;54412;51.206;6.888;2023-11-19T05:52:20;100202.94;;;12.48;100.00
10460;BME280;54412;51.206;6.888;2023-11-19T05:54:47;100195.28;;;12.43;100.00
10460;BME280;54412;51.206;6.888;2023-11-19T05:57:17;100200.69;;;12.42;100.00
10460;BME280;54412;51.206;6.888;2023-11-19T05:59:49;100206.63;;;12.45;100.00
10460;BME280;54412;51.206;6.888;2023-11-19T06:02:15;100212.81;;;12.58;100.00
10460;BME280;54412;51.206;6.888;2023-11-19T06:04:41;100223.63;;;12.55;100.00
10460;BME280;54412;51.206;6.888;2023-11-19T06:07:09;100223.34;;;12.46;100.00
10460;BME280;54412;51.206;6.888;2023-11-19T06:09:35;100227.13;;;12.42;100.00
10460;BME280;54412;51.206;6.888;2023-11-19T06:12:01;100223.69;;;12.54;100.00
10460;BME280;54412;51.206;6.888;2023-11-19T06:14:31;100227.41;;;12.51;100.00
10460;BME280;54412;51.206;6.888;2023-11-19T06:16:57;100230.97;;;12.50;100.00
10460;BME280;54412;51.206;6.888;2023-11-19T06:19:23;100237.69;;;12.42;100.00
10460;BME280;54412;51.206;6.888;2023-11-19T06:21:50;100232.50;;;12.40;100.00
10460;BME280;54412;51.206;6.888;2023-11-19T06:24:15;100229.13;;;12.38;100.00
10460;BME280;54412;51.206;6.888;2023-11-19T06:26:41;100244.97;;;12.38;100.00
10460;BME280;54412;51.206;6.888;2023-11-19T06:29:07;100231.41;;;12.30;100.00
10460;BME280;54412;51.206;6.888;2023-11-19T06:31:32;100219.78;;;12.33;100.00
10460;BME280;54412;51.206;6.888;2023-11-19T06:33:58;100210.75;;;12.23;100.00
10460;BME280;54412;51.206;6.888;2023-11-19T06:36:24;100216.84;;;12.23;100.00
10460;BME280;54412;51.206;6.888;2023-11-19T06:38:50;100229.81;;;12.14;100.00
10460;BME280;54412;51.206;6.888;2023-11-19T06:41:15;100226.13;;;12.16;100.00
10460;BME280;54412;51.206;6.888;2023-11-19T06:43:41;100216.03;;;12.23;100.00
10460;BME280;54412;51.206;6.888;2023-11-19T06:46:17;100234.56;;;12.09;100.00
10460;BME280;54412;51.206;6.888;2023-11-19T06:48:44;100238.41;;;12.17;100.00
10460;BME280;54412;51.206;6.888;2023-11-19T06:51:11;100230.84;;;12.11;100.00
10460;BME280;54412;51.206;6.888;2023-11-19T06:53:36;100238.50;;;12.16;100.00
10460;BME280;54412;51.206;6.888;2023-11-19T06:56:03;100229.94;;;12.12;100.00
10460;BME280;54412;51.206;6.888;2023-11-19T06:58:35;100228.97;;;11.99;100.00
10460;BME280;54412;51.206;6.888;2023-11-19T07:01:01;100234.38;;;11.98;100.00
10460;BME280;54412;51.206;6.888;2023-11-19T07:03:27;100224.72;;;11.97;100.00
10460;BME280;54412;51.206;6.888;2023-11-19T07:05:52;100230.66;;;12.00;100.00
10460;BME280;54412;51.206;6.888;2023-11-19T07:08:18;100223.50;;;12.02;100.00
10460;BME280;54412;51.206;6.888;2023-11-19T07:10:43;100220.66;;;12.05;100.00
10460;BME280;54412;51.206;6.888;2023-11-19T07:13:09;100233.13;;;12.03;100.00
10460;BME280;54412;51.206;6.888;2023-11-19T07:15:35;100230.09;;;12.09;100.00
10460;BME280;54412;51.206;6.888;2023-11-19T07:18:00;100234.16;;;12.01;100.00
10460;BME280;54412;51.206;6.888;2023-11-19T07:20:26;100239.56;;;11.99;100.00
10460;BME280;54412;51.206;6.888;2023-11-19T07:22:53;100241.16;;;12.16;100.00
10460;BME280;54412;51.206;6.888;2023-11-19T07:25:20;100246.25;;;12.05;100.00
10460;BME280;54412;51.206;6.888;2023-11-19T07:27:46;100251.34;;;11.94;100.00
10460;BME280;54412;51.206;6.888;2023-11-19T07:30:13;100251.91;;;11.99;100.00
10460;BME280;54412;51.206;6.888;2023-11-19T07:32:39;100248.59;;;12.09;100.00
10460;BME280;54412;51.206;6.888;2023-11-19T07:35:05;100238.69;;;11.99;100.00
10460;BME280;54412;51.206;6.888;2023-11-19T07:37:31;100255.22;;;12.02;100.00
10460;BME280;54412;51.206;6.888;2023-11-19T07:39:57;100244.28;;;12.08;100.00
10460;BME280;54412;51.206;6.888;2023-11-19T07:42:22;100260.19;;;11.93;100.00
10460;BME280;54412;51.206;6.888;2023-11-19T07:44:49;100258.63;;;12.04;100.00
10460;BME280;54412;51.206;6.888;2023-11-19T07:47:14;100271.72;;;12.06;100.00
10460;BME280;54412;51.206;6.888;2023-11-19T07:49:40;100277.69;;;12.09;100.00
10460;BME280;54412;51.206;6.888;2023-11-19T07:52:06;100277.97;;;12.05;100.00
10460;BME280;54412;51.206;6.888;2023-11-19T07:54:32;100286.00;;;12.03;100.00
10460;BME280;54412;51.206;6.888;2023-11-19T07:56:58;100289.56;;;12.16;100.00
10460;BME280;54412;51.206;6.888;2023-11-19T07:59:23;100295.81;;;12.15;100.00
10460;BME280;54412;51.206;6.888;2023-11-19T08:01:49;100305.63;;;12.27;100.00
10460;BME280;54412;51.206;6.888;2023-11-19T08:04:15;100308.94;;;12.31;100.00
10460;BME280;54412;51.206;6.888;2023-11-19T08:06:41;100308.16;;;12.29;100.00
10460;BME280;54412;51.206;6.888;2023-11-19T08:09:06;100322.06;;;12.32;100.00
10460;BME280;54412;51.206;6.888;2023-11-19T08:11:33;100327.44;;;12.31;100.00
10460;BME280;54412;51.206;6.888;2023-11-19T08:13:59;100320.56;;;12.42;100.00
10460;BME280;54412;51.206;6.888;2023-11-19T08:16:24;100335.06;;;12.63;100.00
10460;BME280;54412;51.206;6.888;2023-11-19T08:18:50;100335.44;;;12.57;100.00
10460;BME280;54412;51.206;6.888;2023-11-19T08:21:16;100333.94;;;12.68;100.00
10460;BME280;54412;51.206;6.888;2023-11-19T08:23:42;100333.19;;;12.66;100.00
10460;BME280;54412;51.206;6.888;2023-11-19T08:26:08;100346.44;;;12.51;100.00
10460;BME280;54412;51.206;6.888;2023-11-19T08:28:34;100352.66;;;12.65;100.00
10460;BME280;54412;51.206;6.888;2023-11-19T08:31:00;100344.91;;;12.47;100.00
10460;BME280;54412;51.206;6.888;2023-11-19T08:33:26;100346.88;;;12.58;100.00
10460;BME280;54412;51.206;6.888;2023-11-19T08:35:52;100338.69;;;12.63;100.00
10460;BME280;54412;51.206;6.888;2023-11-19T08:38:18;100334.41;;;12.60;100.00
10460;BME280;54412;51.206;6.888;2023-11-19T08:40:44;100329.88;;;12.62;100.00
10460;BME280;54412;51.206;6.888;2023-11-19T08:43:09;100329.13;;;12.60;100.00
10460;BME280;54412;51.206;6.888;2023-11-19T08:45:35;100329.13;;;12.60;100.00
10460;BME280;54412;51.206;6.888;2023-11-19T08:48:01;100317.66;;;12.74;100.00
10460;BME280;54412;51.206;6.888;2023-11-19T08:50:27;100323.75;;;12.88;100.00
10460;BME280;54412;51.206;6.888;2023-11-19T08:52:53;100332.94;;;13.11;99.55
10460;BME280;54412;51.206;6.888;2023-11-19T08:55:18;100329.50;;;13.35;98.13
10460;BME280;54412;51.206;6.888;2023-11-19T08:57:44;100334.50;;;13.13;97.25
10460;BME280;54412;51.206;6.888;2023-11-19T09:00:11;100324.56;;;13.17;97.32
10460;BME280;54412;51.206;6.888;2023-11-19T09:02:39;100342.47;;;13.40;96.81
10460;BME280;54412;51.206;6.888;2023-11-19T09:05:06;100341.97;;;13.21;96.70
10460;BME280;54412;51.206;6.888;2023-11-19T09:07:33;100340.56;;;13.01;96.68
10460;BME280;54412;51.206;6.888;2023-11-19T09:09:59;100345.34;;;12.82;98.01
10460;BME280;54412;51.206;6.888;2023-11-19T09:12:24;100332.66;;;12.87;99.82
10460;BME280;54412;51.206;6.888;2023-11-19T09:14:50;100341.06;;;12.94;99.47
10460;BME280;54412;51.206;6.888;2023-11-19T09:17:16;100349.16;;;13.19;97.22
10460;BME280;54412;51.206;6.888;2023-11-19T09:19:43;100352.06;;;13.28;94.76
10460;BME280;54412;51.206;6.888;2023-11-19T09:22:08;100340.66;;;13.14;95.23
10460;BME280;54412;51.206;6.888;2023-11-19T09:24:34;100341.47;;;13.28;95.68
10460;BME280;54412;51.206;6.888;2023-11-19T09:27:00;100335.78;;;13.34;96.44
10460;BME280;54412;51.206;6.888;2023-11-19T09:29:25;100350.88;;;13.59;95.83
10460;BME280;54412;51.206;6.888;2023-11-19T09:31:51;100347.66;;;13.41;94.20
10460;BME280;54412;51.206;6.888;2023-11-19T09:34:17;100334.84;;;13.48;94.26
10460;BME280;54412;51.206;6.888;2023-11-19T09:36:42;100334.66;;;13.63;91.54
10460;BME280;54412;51.206;6.888;2023-11-19T09:39:13;100351.88;;;13.71;91.03
10460;BME280;54412;51.206;6.888;2023-11-19T09:41:44;100341.81;;;13.88;89.30
10460;BME280;54412;51.206;6.888;2023-11-19T09:44:10;100344.03;;;13.82;90.07
10460;BME280;54412;51.206;6.888;2023-11-19T09:46:40;100348.31;;;13.45;91.39
10460;BME280;54412;51.206;6.888;2023-11-19T09:49:08;100345.75;;;13.43;91.62
10460;BME280;54412;51.206;6.888;2023-11-19T09:51:36;100350.44;;;13.26;93.31
10460;BME280;54412;51.206;6.888;2023-11-19T09:54:02;100356.22;;;13.32;92.61
10460;BME280;54412;51.206;6.888;2023-11-19T09:56:29;100353.94;;;13.26;92.72
10460;BME280;54412;51.206;6.888;2023-11-19T09:58:55;100336.91;;;13.30;92.99
10460;BME280;54412;51.206;6.888;2023-11-19T10:01:21;100337.59;;;13.46;90.68
10460;BME280;54412;51.206;6.888;2023-11-19T10:03:49;100336.22;;;13.41;91.15
10460;BME280;54412;51.206;6.888;2023-11-19T10:06:15;100341.78;;;13.24;90.74
10460;BME280;54412;51.206;6.888;2023-11-19T10:08:42;100333.03;;;13.36;91.16
10460;BME280;54412;51.206;6.888;2023-11-19T10:11:09;100344.88;;;13.30;91.46
10460;BME280;54412;51.206;6.888;2023-11-19T10:13:37;100335.03;;;13.32;91.38
10460;BME280;54412;51.206;6.888;2023-11-19T10:16:12;100336.38;;;13.25;91.82
10460;BME280;54412;51.206;6.888;2023-11-19T10:18:46;100329.13;;;13.41;92.84
10460;BME280;54412;51.206;6.888;2023-11-19T10:21:19;100321.34;;;13.38;91.18
10460;BME280;54412;51.206;6.888;2023-11-19T10:23:57;100315.38;;;13.22;91.59
10460;BME280;54412;51.206;6.888;2023-11-19T10:26:27;100326.09;;;13.33;92.07
10460;BME280;54412;51.206;6.888;2023-11-19T10:28:53;100324.78;;;13.53;90.82
10460;BME280;54412;51.206;6.888;2023-11-19T10:31:20;100329.59;;;13.73;90.18
10460;BME280;54412;51.206;6.888;2023-11-19T10:33:55;100332.16;;;14.00;88.55
10460;BME280;54412;51.206;6.888;2023-11-19T10:36:22;100328.25;;;14.05;88.67
10460;BME280;54412;51.206;6.888;2023-11-19T10:38:56;100330.69;;;13.83;88.34
10460;BME280;54412;51.206;6.888;2023-11-19T10:41:32;100323.44;;;13.73;88.42
10460;BME280;54412;51.206;6.888;2023-11-19T10:43:59;100328.66;;;13.74;88.49
10460;BME280;54412;51.206;6.888;2023-11-19T10:46:40;100325.78;;;13.64;89.53
10460;BME280;54412;51.206;6.888;2023-11-19T10:49:10;100308.47;;;13.46;89.42
10460;BME280;54412;51.206;6.888;2023-11-19T10:51:36;100324.59;;;13.56;88.86
10460;BME280;54412;51.206;6.888;2023-11-19T10:54:05;100330.47;;;13.74;88.80
10460;BME280;54412;51.206;6.888;2023-11-19T10:56:32;100319.31;;;13.56;89.32
10460;BME280;54412;51.206;6.888;2023-11-19T10:59:00;100318.56;;;13.54;88.86
10460;BME280;54412;51.206;6.888;2023-11-19T11:01:44;100313.06;;;13.70;88.62
10460;BME280;54412;51.206;6.888;2023-11-19T11:04:23;100318.66;;;13.52;87.12
10460;BME280;54412;51.206;6.888;2023-11-19T11:06:51;100312.31;;;13.68;87.51
10460;BME280;54412;51.206;6.888;2023-11-19T11:09:20;100306.25;;;13.65;87.23
10460;BME280;54412;51.206;6.888;2023-11-19T11:11:47;100311.78;;;13.75;87.07
10460;BME280;54412;51.206;6.888;2023-11-19T11:14:14;100310.41;;;13.82;86.30
10460;BME280;54412;51.206;6.888;2023-11-19T11:16:43;100310.13;;;13.74;85.09
10460;BME280;54412;51.206;6.888;2023-11-19T11:19:11;100317.31;;;13.72;86.35
10460;BME280;54412;51.206;6.888;2023-11-19T11:21:40;100312.75;;;13.61;86.11
10460;BME280;54412;51.206;6.888;2023-11-19T11:27:30;100321.78;;;13.97;85.72
10460;BME280;54412;51.206;6.888;2023-11-19T11:30:31;100312.78;;;13.99;85.40
10460;BME280;54412;51.206;6.888;2023-11-19T11:33:34;100310.00;;;14.51;82.16
10460;BME280;54412;51.206;6.888;2023-11-19T11:36:19;100308.06;;;14.65;80.75
10460;BME280;54412;51.206;6.888;2023-11-19T11:38:49;100300.63;;;14.71;80.38
10460;BME280;54412;51.206;6.888;2023-11-19T11:41:23;100302.13;;;14.62;82.24
10460;BME280;54412;51.206;6.888;2023-11-19T11:43:53;100299.66;;;14.72;82.05
10460;BME280;54412;51.206;6.888;2023-11-19T11:49:04;100291.56;;;14.24;83.71
10460;BME280;54412;51.206;6.888;2023-11-19T11:54:26;100278.81;;;14.17;85.50
10460;BME280;54412;51.206;6.888;2023-11-19T11:57:12;100269.16;;;14.03;84.50
10460;BME280;54412;51.206;6.888;2023-11-19T12:02:09;100271.75;;;14.05;85.36
10460;BME280;54412;51.206;6.888;2023-11-19T12:04:36;100288.47;;;14.30;84.75
10460;BME280;54412;51.206;6.888;2023-11-19T12:07:08;100293.03;;;14.28;81.73
10460;BME280;54412;51.206;6.888;2023-11-19T12:09:47;100286.91;;;14.28;81.05
10460;BME280;54412;51.206;6.888;2023-11-19T12:12:27;100293.59;;;14.08;80.48
10460;BME280;54412;51.206;6.888;2023-11-19T12:20:01;100268.44;;;14.39;79.16
10460;BME280;54412;51.206;6.888;2023-11-19T12:22:27;100264.25;;;14.84;77.81
10460;BME280;54412;51.206;6.888;2023-11-19T12:24:54;100263.25;;;14.61;78.53
10460;BME280;54412;51.206;6.888;2023-11-19T12:27:20;100254.25;;;14.63;78.41
10460;BME280;54412;51.206;6.888;2023-11-19T12:29:49;100261.22;;;14.64;78.65
10460;BME280;54412;51.206;6.888;2023-11-19T12:32:15;100256.97;;;14.38;80.29
10460;BME280;54412;51.206;6.888;2023-11-19T12:34:41;100245.59;;;14.24;79.84
10460;BME280;54412;51.206;6.888;2023-11-19T12:37:07;100249.31;;;14.21;80.79
10460;BME280;54412;51.206;6.888;2023-11-19T12:39:35;100250.41;;;14.06;80.84
10460;BME280;54412;51.206;6.888;2023-11-19T12:42:01;100247.25;;;14.01;82.04
10460;BME280;54412;51.206;6.888;2023-11-19T12:44:27;100240.00;;;13.91;82.86
10460;BME280;54412;51.206;6.888;2023-11-19T12:49:27;100243.84;;;13.74;84.04
10460;BME280;54412;51.206;6.888;2023-11-19T12:51:52;100243.94;;;13.73;86.02
10460;BME280;54412;51.206;6.888;2023-11-19T12:54:18;100233.88;;;13.78;86.52
10460;BME280;54412;51.206;6.888;2023-11-19T12:56:54;100244.16;;;13.70;85.52
10460;BME280;54412;51.206;6.888;2023-11-19T12:59:19;100248.06;;;13.77;85.24
10460;BME280;54412;51.206;6.888;2023-11-19T13:02:03;100256.34;;;13.97;84.43
10460;BME280;54412;51.206;6.888;2023-11-19T13:04:31;100252.56;;;14.50;82.01